Time;durP1;ratioP1;P1;durP2;ratioP2;P2;SDS_P1;SDS_P2;PMS_P1;PMS_P2;Temp;Humidity;BMP_temperature;BMP_pressure;BME280_temperature;BME280_humidity;BME280_pressure;Samples;Min_cycle;Max_cycle;Signal;HPM_P1;HPM_P2
2022/07/03 00:02:25;;;;;;;;;1.50;1.50;;;;;23.99;37.00;101437.34;5092094;27;45604;-51
2022/07/03 00:04:50;;;;;;;;;1.00;1.00;;;;;23.95;36.97;101425.25;5083745;27;45445;-51
2022/07/03 00:07:16;;;;;;;;;1.00;1.00;;;;;23.92;37.06;101422.75;5078793;28;45362;-52
2022/07/03 00:09:41;;;;;;;;;1.25;1.00;;;;;23.88;37.18;101424.75;5078545;28;45532;-50
2022/07/03 00:12:07;;;;;;;;;1.00;1.00;;;;;23.85;36.88;101427.56;5078598;28;46162;-53
2022/07/03 00:14:32;;;;;;;;;1.00;1.00;;;;;23.83;37.36;101421.50;5078558;28;45423;-51
2022/07/03 00:16:58;;;;;;;;;1.25;1.00;;;;;23.81;36.90;101422.56;5078364;28;45395;-52
2022/07/03 00:19:23;;;;;;;;;2.50;1.00;;;;;23.78;36.72;101419.13;5078797;28;45506;-50
2022/07/03 00:22:03;;;;;;;;;0.75;0.75;;;;;23.77;36.78;101421.88;5078119;28;45403;-51
2022/07/03 00:24:37;;;;;;;;;1.50;1.50;;;;;23.73;36.99;101418.56;5078346;28;45275;-52
2022/07/03 00:27:08;;;;;;;;;1.50;1.50;;;;;23.73;36.53;101415.06;5078223;28;45280;-53
2022/07/03 00:29:38;;;;;;;;;2.00;2.00;;;;;23.72;36.92;101414.22;5078824;28;45330;-53
2022/07/03 00:32:09;;;;;;;;;3.00;2.00;;;;;23.69;37.06;101419.69;5078188;28;46382;-53
2022/07/03 00:34:34;;;;;;;;;1.00;1.00;;;;;23.68;36.92;101420.63;5078455;28;45449;-50
2022/07/03 00:37:01;;;;;;;;;1.50;1.50;;;;;23.68;36.96;101412.69;5078158;28;45338;-51
2022/07/03 00:39:26;;;;;;;;;1.00;1.00;;;;;23.66;36.59;101409.28;5078379;28;45236;-50
2022/07/03 00:42:03;;;;;;;;;1.00;1.00;;;;;23.65;36.95;101415.50;5077814;28;46099;-53
2022/07/03 00:44:30;;;;;;;;;1.50;1.00;;;;;23.65;36.76;101412.88;5078186;28;45812;-51
2022/07/03 00:46:56;;;;;;;;;2.00;1.00;;;;;23.63;37.10;101414.78;5077920;28;45370;-50
2022/07/03 00:49:24;;;;;;;;;1.00;1.00;;;;;23.62;36.30;101423.66;5078201;28;45397;-53
2022/07/03 00:51:52;;;;;;;;;2.50;1.00;;;;;23.60;36.51;101420.25;5077625;28;45406;-53
2022/07/03 00:54:21;;;;;;;;;1.00;1.00;;;;;23.60;36.68;101431.66;5059332;28;45753;-54
2022/07/03 00:56:50;;;;;;;;;1.00;1.00;;;;;23.59;36.35;101418.53;5077694;28;45467;-54
2022/07/03 00:59:15;;;;;;;;;1.00;1.00;;;;;23.58;36.44;101423.00;5078132;28;45264;-52
2022/07/03 01:01:41;;;;;;;;;2.25;0.75;;;;;23.58;36.26;101422.13;5077461;28;46286;-53
2022/07/03 01:04:29;;;;;;;;;0.00;0.00;;;;;23.58;36.28;101424.78;5078004;28;45215;-52
2022/07/03 01:07:05;;;;;;;;;1.00;1.00;;;;;23.57;36.31;101420.41;5077664;28;45230;-53
2022/07/03 01:10:04;;;;;;;;;1.00;1.00;;;;;23.55;36.46;101419.66;5059682;28;45613;-52
2022/07/03 01:12:46;;;;;;;;;1.00;1.00;;;;;23.54;36.20;101423.25;5077524;28;45589;-56
2022/07/03 01:15:23;;;;;;;;;0.00;0.00;;;;;23.52;36.35;101423.34;5077556;28;45881;-51
2022/07/03 01:18:14;;;;;;;;;1.25;1.00;;;;;23.50;36.41;101422.56;5076857;28;45398;-52
2022/07/03 01:20:43;;;;;;;;;0.00;0.00;;;;;23.51;35.86;101428.72;5070219;27;45544;-50
2022/07/03 01:23:39;;;;;;;;;1.00;1.00;;;;;23.49;35.97;101428.81;5077369;28;45438;-48
2022/07/03 01:26:09;;;;;;;;;1.50;0.50;;;;;23.49;36.03;101433.25;5070213;27;45339;-53
2022/07/03 01:28:39;;;;;;;;;0.50;0.50;;;;;23.49;36.02;101425.31;5077883;28;45319;-51
2022/07/03 01:31:05;;;;;;;;;1.00;1.00;;;;;23.47;35.96;101426.25;5077777;28;45310;-54
2022/07/03 01:33:35;;;;;;;;;1.50;1.00;;;;;23.47;35.95;101428.91;5077114;28;46295;-52
2022/07/03 01:36:00;;;;;;;;;0.00;0.00;;;;;23.46;35.53;101432.50;5077062;28;45182;-49
2022/07/03 01:38:28;;;;;;;;;1.00;1.00;;;;;23.46;35.75;101429.84;5077241;28;45371;-51
2022/07/03 01:40:55;;;;;;;;;0.00;0.00;;;;;23.45;35.85;101422.00;5077183;28;45366;-52
2022/07/03 01:43:28;;;;;;;;;0.00;0.00;;;;;23.45;35.68;101425.50;5092948;27;45493;-50
2022/07/03 01:45:57;;;;;;;;;0.00;0.00;;;;;23.45;35.72;101422.00;5076841;28;45262;-49
2022/07/03 01:48:24;;;;;;;;;0.00;0.00;;;;;23.44;35.98;101422.94;5077329;28;45343;-48
2022/07/03 01:50:50;;;;;;;;;0.00;0.00;;;;;23.43;35.65;101424.72;5077022;28;45532;-52
2022/07/03 01:53:16;;;;;;;;;0.00;0.00;;;;;23.43;35.39;101419.44;5076746;28;46234;-51
2022/07/03 01:55:43;;;;;;;;;0.00;0.00;;;;;23.42;35.36;101422.19;5076821;28;45284;-49
2022/07/03 01:58:10;;;;;;;;;0.75;0.75;;;;;23.42;35.43;101417.75;5077426;28;45294;-52
2022/07/03 02:00:40;;;;;;;;;0.00;0.00;;;;;23.42;35.71;101412.47;5059360;28;45450;-48
2022/07/03 02:03:06;;;;;;;;;0.50;0.00;;;;;23.41;35.38;101421.34;5058864;28;48644;-53
2022/07/03 02:05:41;;;;;;;;;0.00;0.00;;;;;23.42;35.58;101416.88;5076750;28;45330;-52
2022/07/03 02:08:12;;;;;;;;;0.00;0.00;;;;;23.41;35.30;101413.41;5058962;28;45424;-52
2022/07/03 02:10:46;;;;;;;;;0.00;0.00;;;;;23.41;35.55;101426.63;5077253;28;45522;-52
2022/07/03 02:13:19;;;;;;;;;0.00;0.00;;;;;23.39;35.82;101417.94;5076358;28;47070;-49
2022/07/03 02:15:50;;;;;;;;;0.00;0.00;;;;;23.40;35.21;101419.63;5076437;28;45755;-53
2022/07/03 02:18:27;;;;;;;;;0.00;0.00;;;;;23.39;35.28;101420.56;5076648;28;45434;-53
2022/07/03 02:21:14;;;;;;;;;0.25;0.25;;;;;23.38;35.35;101424.16;5076671;28;45357;-51
2022/07/03 02:23:52;;;;;;;;;1.00;0.00;;;;;23.38;35.39;101416.22;5076030;28;46953;-51
2022/07/03 02:26:20;;;;;;;;;1.50;0.50;;;;;23.39;35.37;101414.41;5076628;28;45220;-52
2022/07/03 02:29:00;;;;;;;;;0.00;0.00;;;;;23.38;35.49;101418.88;5076069;28;45369;-51
2022/07/03 02:31:27;;;;;;;;;0.00;0.00;;;;;23.38;35.64;101410.94;5076762;28;45182;-51
2022/07/03 02:33:58;;;;;;;;;2.00;0.75;;;;;23.37;35.65;101408.38;5075966;28;47548;-52
2022/07/03 02:36:27;;;;;;;;;1.00;1.00;;;;;23.37;35.24;101419.81;5076512;28;45710;-53
2022/07/03 02:38:56;;;;;;;;;1.00;1.00;;;;;23.35;35.39;101421.69;5076250;28;45255;-49
2022/07/03 02:41:39;;;;;;;;;1.00;1.00;;;;;23.35;35.74;101424.31;5076619;28;45330;-53
2022/07/03 02:44:21;;;;;;;;;0.00;0.00;;;;;23.34;35.46;101419.97;5076481;28;46117;-51
2022/07/03 02:46:58;;;;;;;;;0.75;0.75;;;;;23.34;35.56;101424.44;5076049;28;45245;-50
2022/07/03 02:49:49;;;;;;;;;0.00;0.00;;;;;23.35;35.46;101423.50;5076522;28;45710;-51
2022/07/03 02:52:24;;;;;;;;;0.00;0.00;;;;;23.34;35.76;101427.06;5059003;28;45473;-55
2022/07/03 02:54:51;;;;;;;;;0.00;0.00;;;;;23.33;35.31;101422.72;5075874;28;45351;-52
2022/07/03 02:57:24;;;;;;;;;0.00;0.00;;;;;23.34;35.52;101432.38;5076137;28;46090;-55
2022/07/03 02:59:56;;;;;;;;;1.50;1.00;;;;;23.33;35.67;101428.84;5076011;28;45375;-52
2022/07/03 03:02:21;;;;;;;;;1.00;1.00;;;;;23.33;35.66;101433.28;5076369;28;45374;-53
2022/07/03 03:05:02;;;;;;;;;2.00;0.00;;;;;23.31;35.73;101436.88;5075689;28;46056;-54
2022/07/03 03:07:35;;;;;;;;;0.50;0.50;;;;;23.30;35.79;101432.53;5075997;28;45554;-52
2022/07/03 03:10:00;;;;;;;;;2.00;0.75;;;;;23.31;36.20;101436.03;5075881;28;45311;-52
2022/07/03 03:12:47;;;;;;;;;1.00;1.00;;;;;23.29;36.22;101437.91;5076039;28;45557;-55
2022/07/03 03:15:13;;;;;;;;;0.50;0.50;;;;;23.28;36.05;101441.50;5075680;28;45425;-52
2022/07/03 03:17:43;;;;;;;;;0.25;0.25;;;;;23.28;36.36;101442.34;5091784;27;45682;-51
2022/07/03 03:20:14;;;;;;;;;2.00;1.00;;;;;23.26;36.00;101436.28;5057869;28;45386;-53
2022/07/03 03:22:55;;;;;;;;;2.00;0.75;;;;;23.26;36.43;101443.38;5075730;28;45342;-53
2022/07/03 03:25:21;;;;;;;;;2.00;0.75;;;;;23.24;36.32;101439.97;5075616;28;45308;-56
2022/07/03 03:27:46;;;;;;;;;1.00;1.00;;;;;23.24;36.13;101445.25;5075472;28;45565;-57
2022/07/03 03:30:12;;;;;;;;;2.00;2.00;;;;;23.23;36.22;101438.25;5075716;28;45236;-55
2022/07/03 03:32:39;;;;;;;;;1.75;1.75;;;;;23.23;36.14;101438.25;5076183;28;45217;-55
2022/07/03 03:35:04;;;;;;;;;1.00;1.00;;;;;23.21;36.61;101432.19;5075746;28;46438;-54
2022/07/03 03:37:30;;;;;;;;;1.00;1.00;;;;;23.20;36.42;101438.44;5075706;28;45458;-56
2022/07/03 03:39:56;;;;;;;;;1.00;1.00;;;;;23.20;36.62;101441.09;5076844;28;45369;-56
2022/07/03 03:42:22;;;;;;;;;1.00;1.00;;;;;23.20;36.86;101433.16;5079345;28;45586;-54
2022/07/03 03:44:47;;;;;;;;;2.00;2.00;;;;;23.20;36.65;101433.16;5078529;28;46723;-52
2022/07/03 03:47:12;;;;;;;;;1.00;1.00;;;;;23.19;36.79;101437.59;5078958;28;45422;-52
2022/07/03 03:49:38;;;;;;;;;0.00;0.00;;;;;23.19;36.71;101439.34;5079403;28;45529;-54
2022/07/03 03:52:04;;;;;;;;;1.00;1.00;;;;;23.19;36.63;101440.22;5079254;28;45526;-55
2022/07/03 03:54:29;;;;;;;;;0.25;0.25;;;;;23.17;36.72;101440.28;5078566;28;47234;-50
2022/07/03 03:56:54;;;;;;;;;1.00;1.00;;;;;23.18;36.56;101441.13;5078460;28;45270;-52
2022/07/03 03:59:21;;;;;;;;;1.25;1.25;;;;;23.16;36.79;101443.88;5078752;28;45358;-53
2022/07/03 04:01:47;;;;;;;;;1.50;1.00;;;;;23.15;36.66;101439.53;5078733;28;45569;-52
2022/07/03 04:04:17;;;;;;;;;3.00;1.25;;;;;23.14;36.67;101445.75;5094518;27;47575;-52
2022/07/03 04:06:43;;;;;;;;;2.00;1.00;;;;;23.13;36.79;101441.41;5078294;28;45420;-52
2022/07/03 04:09:08;;;;;;;;;0.00;0.00;;;;;23.12;36.71;101444.97;5078981;28;45397;-51
2022/07/03 04:11:34;;;;;;;;;3.00;1.00;;;;;23.11;36.79;101451.19;5078950;28;45239;-51
2022/07/03 04:13:59;;;;;;;;;2.00;1.00;;;;;23.11;37.00;101451.19;5078147;28;46678;-50
2022/07/03 04:16:24;;;;;;;;;3.25;1.00;;;;;23.11;37.02;101453.84;5060216;28;46097;-53
2022/07/03 04:18:49;;;;;;;;;2.00;1.00;;;;;23.10;36.96;101451.31;5078301;28;45324;-49
2022/07/03 04:21:15;;;;;;;;;2.75;2.00;;;;;23.09;37.14;101450.47;5078524;28;45583;-51
2022/07/03 04:23:40;;;;;;;;;2.25;2.25;;;;;23.08;37.00;101458.47;5078061;28;46313;-50
2022/07/03 04:26:06;;;;;;;;;1.50;1.25;;;;;23.08;36.92;101461.97;5078586;28;45374;-53
2022/07/03 04:28:32;;;;;;;;;1.00;1.00;;;;;23.07;36.91;101465.56;5078493;28;45303;-52
2022/07/03 04:30:57;;;;;;;;;1.00;1.00;;;;;23.06;37.19;101463.84;5078340;28;45482;-51
2022/07/03 04:33:23;;;;;;;;;1.00;1.00;;;;;23.06;37.19;101468.25;5078149;28;45544;-53
2022/07/03 04:35:48;;;;;;;;;3.00;1.00;;;;;23.05;36.94;101464.78;5078178;28;45921;-53
2022/07/03 04:38:13;;;;;;;;;1.75;1.75;;;;;23.04;36.69;101468.38;5078286;28;45763;-47
2022/07/03 04:40:39;;;;;;;;;1.00;1.00;;;;;23.04;37.03;101471.00;5078222;28;45528;-51
2022/07/03 04:43:04;;;;;;;;;1.00;1.00;;;;;23.05;36.96;101478.00;5078405;28;45381;-54
2022/07/03 04:45:29;;;;;;;;;1.50;1.50;;;;;23.05;36.91;101477.13;5077919;28;49671;-54
2022/07/03 04:47:55;;;;;;;;;2.00;2.00;;;;;23.04;37.10;101480.75;5077800;28;45220;-52
2022/07/03 04:50:20;;;;;;;;;1.00;1.00;;;;;23.03;37.07;101479.88;5078202;28;45665;-53
2022/07/03 04:52:45;;;;;;;;;2.25;1.75;;;;;23.03;37.31;101479.88;5077285;28;45301;-50
2022/07/03 04:55:12;;;;;;;;;2.00;2.00;;;;;23.05;37.24;101477.13;5077568;28;45567;-52
2022/07/03 04:57:37;;;;;;;;;1.00;1.00;;;;;23.06;37.37;101484.13;5078016;28;45284;-49
2022/07/03 05:00:03;;;;;;;;;1.75;1.00;;;;;23.02;37.04;101480.81;5077570;28;45362;-47
2022/07/03 05:02:29;;;;;;;;;0.00;0.00;;;;;22.99;37.63;101473.03;5077231;28;45508;-48
2022/07/03 05:04:54;;;;;;;;;2.00;1.00;;;;;22.96;37.31;101481.16;5077002;28;45504;-49
2022/07/03 05:07:19;;;;;;;;;0.25;0.25;;;;;22.93;37.44;101482.16;5077358;28;45335;-50
2022/07/03 05:09:45;;;;;;;;;2.00;1.00;;;;;22.90;37.67;101479.72;5077163;28;45494;-50
2022/07/03 05:12:10;;;;;;;;;2.00;1.00;;;;;22.88;37.80;101478.06;5077176;28;45812;-49
2022/07/03 05:14:35;;;;;;;;;0.50;0.50;;;;;22.83;38.10;101484.47;5077504;28;45389;-46
2022/07/03 05:17:01;;;;;;;;;2.00;1.00;;;;;22.81;38.08;101486.34;5077145;28;45430;-49
2022/07/03 05:19:26;;;;;;;;;1.00;1.00;;;;;22.78;38.31;101481.22;5093282;27;45760;-48
2022/07/03 05:21:51;;;;;;;;;1.25;1.00;;;;;22.77;38.22;101484.81;5076853;28;47365;-49
2022/07/03 05:24:16;;;;;;;;;0.00;0.00;;;;;22.74;38.23;101481.47;5077154;28;45247;-48
2022/07/03 05:26:42;;;;;;;;;1.00;1.00;;;;;22.72;38.69;101481.56;5076916;28;45441;-48
2022/07/03 05:29:07;;;;;;;;;0.50;0.50;;;;;22.73;38.81;101475.34;5077510;28;45637;-46
2022/07/03 05:31:32;;;;;;;;;0.25;0.25;;;;;22.71;38.62;101482.50;5076888;28;46104;-46
2022/07/03 05:33:58;;;;;;;;;0.00;0.00;;;;;22.70;38.69;101479.03;5076525;28;46860;-46
2022/07/03 05:36:24;;;;;;;;;0.00;0.00;;;;;22.71;39.16;101485.16;5059040;28;45267;-53
2022/07/03 05:41:33;;;;;;;;;2.50;0.75;;;;;22.67;39.11;101487.13;5076769;28;45244;-51
2022/07/03 05:43:58;;;;;;;;;1.00;1.00;;;;;22.65;39.36;101490.78;5076577;28;45682;-51
2022/07/03 05:46:24;;;;;;;;;1.00;1.00;;;;;22.62;39.37;101493.59;5076925;28;45422;-50
2022/07/03 05:48:49;;;;;;;;;1.00;1.00;;;;;22.57;39.46;101487.69;5076661;28;45640;-50
2022/07/03 05:51:14;;;;;;;;;0.00;0.00;;;;;22.56;39.81;101494.75;5076604;28;46339;-53
2022/07/03 05:53:40;;;;;;;;;0.00;0.00;;;;;22.53;39.74;101490.50;5057920;28;46249;-51
2022/07/03 05:56:05;;;;;;;;;1.00;1.00;;;;;22.54;39.92;101499.28;5077026;28;45233;-48
2022/07/03 05:58:30;;;;;;;;;0.00;0.00;;;;;22.52;39.87;101487.94;5058697;28;45204;-53
2022/07/03 06:00:56;;;;;;;;;1.00;1.00;;;;;22.50;39.85;101490.66;5076129;28;45390;-51
2022/07/03 06:03:21;;;;;;;;;1.00;1.00;;;;;22.48;40.15;101496.97;5075738;28;45386;-51
2022/07/03 06:05:46;;;;;;;;;0.50;0.50;;;;;22.46;39.98;101501.47;5076245;28;45444;-50
2022/07/03 06:08:12;;;;;;;;;1.00;1.00;;;;;22.42;40.32;101506.06;5076213;28;48059;-52
2022/07/03 06:10:37;;;;;;;;;2.00;2.00;;;;;22.38;40.44;101504.47;5076534;28;46296;-53
2022/07/03 06:13:03;;;;;;;;;3.00;1.00;;;;;22.34;40.65;101502.94;5076046;28;45336;-53
2022/07/03 06:15:28;;;;;;;;;1.00;1.00;;;;;22.30;40.98;101506.69;5076214;28;46726;-51
2022/07/03 06:17:53;;;;;;;;;1.00;1.00;;;;;22.27;40.85;101507.66;5076379;28;45592;-52
2022/07/03 06:20:19;;;;;;;;;1.75;0.25;;;;;22.23;40.95;101503.50;5076113;28;47009;-50
2022/07/03 06:22:44;;;;;;;;;0.00;0.00;;;;;22.21;41.22;101516.75;5057768;28;45274;-55
2022/07/03 06:25:10;;;;;;;;;1.00;1.00;;;;;22.19;41.07;101510.75;5076323;28;45401;-54
2022/07/03 06:27:35;;;;;;;;;2.00;2.00;;;;;22.17;40.98;101514.38;5058425;28;45478;-52
2022/07/03 06:30:01;;;;;;;;;1.25;1.00;;;;;22.18;41.25;101511.66;5075706;28;45954;-55
2022/07/03 06:32:26;;;;;;;;;1.00;1.00;;;;;22.18;41.43;101514.31;5075803;28;45268;-53
2022/07/03 06:34:52;;;;;;;;;3.25;2.00;;;;;22.17;41.55;101514.38;5076057;28;45437;-51
2022/07/03 06:37:17;;;;;;;;;1.00;1.00;;;;;22.17;41.89;101517.88;5076536;28;45549;-55
2022/07/03 06:39:42;;;;;;;;;1.00;1.00;;;;;22.17;41.68;101517.88;5075667;28;46422;-52
2022/07/03 06:42:08;;;;;;;;;1.50;1.50;;;;;22.19;41.83;101515.16;5076027;28;53610;-54
2022/07/03 06:44:33;;;;;;;;;1.00;1.00;;;;;22.19;41.57;101510.75;5076366;28;45296;-55
2022/07/03 06:47:02;;;;;;;;;1.25;1.25;;;;;22.21;41.76;101516.75;5075732;28;45328;-54
2022/07/03 06:49:29;;;;;;;;;1.00;1.00;;;;;22.24;41.92;101521.06;5075742;28;46203;-51
2022/07/03 06:51:54;;;;;;;;;2.25;2.25;;;;;22.24;41.38;101513.97;5075479;28;45471;-55
2022/07/03 06:54:20;;;;;;;;;3.00;2.00;;;;;22.24;41.82;101518.41;5075555;28;45384;-54
2022/07/03 06:56:45;;;;;;;;;3.00;3.00;;;;;22.23;42.06;101514.91;5075647;28;45457;-55
2022/07/03 06:59:10;;;;;;;;;1.75;1.75;;;;;22.23;41.87;101512.25;5075625;28;46160;-55
2022/07/03 07:01:36;;;;;;;;;2.25;2.25;;;;;22.22;42.07;101515.84;5075929;28;45421;-53
2022/07/03 07:04:02;;;;;;;;;3.25;3.00;;;;;22.23;41.82;101525.47;5075425;28;45316;-52
2022/07/03 07:06:28;;;;;;;;;2.00;2.00;;;;;22.27;41.97;101522.69;5075763;28;45538;-55
2022/07/03 07:08:53;;;;;;;;;4.25;2.75;;;;;22.27;41.99;101523.50;5075086;28;46219;-55
2022/07/03 07:11:18;;;;;;;;;3.00;2.00;;;;;22.30;42.05;101517.25;5075586;28;45944;-55
2022/07/03 07:13:43;;;;;;;;;2.00;2.00;;;;;22.30;41.97;101523.38;5075347;28;45313;-51
2022/07/03 07:16:09;;;;;;;;;2.25;2.25;;;;;22.34;41.93;101524.94;5078871;28;45594;-48
2022/07/03 07:18:34;;;;;;;;;4.25;2.25;;;;;22.36;42.01;101516.91;5079261;28;45377;-50
2022/07/03 07:21:00;;;;;;;;;3.50;2.50;;;;;22.40;41.69;101529.03;5078622;28;45169;-53
2022/07/03 07:23:26;;;;;;;;;2.00;2.00;;;;;22.42;41.70;101532.47;5079150;28;45376;-55
2022/07/03 07:25:51;;;;;;;;;3.00;3.00;;;;;22.46;41.93;101528.72;5078880;28;45489;-52
2022/07/03 07:28:17;;;;;;;;;3.00;3.00;;;;;22.47;41.95;101527.78;5078748;28;46250;-51
2022/07/03 07:30:42;;;;;;;;;2.00;2.00;;;;;22.52;41.77;101532.84;5060380;28;45323;-51
2022/07/03 07:33:08;;;;;;;;;4.00;4.00;;;;;22.53;41.57;101535.41;5079491;28;45401;-48
2022/07/03 07:35:34;;;;;;;;;3.25;3.25;;;;;22.54;41.64;101533.63;5079661;28;45239;-49
2022/07/03 07:37:59;;;;;;;;;3.00;3.00;;;;;22.54;41.55;101530.97;5078647;28;45416;-47
2022/07/03 07:40:25;;;;;;;;;3.75;3.00;;;;;22.56;41.60;101534.38;5078761;27;45375;-50
2022/07/03 07:42:50;;;;;;;;;3.00;3.00;;;;;22.58;41.64;101531.66;5078785;28;45341;-47
2022/07/03 07:45:15;;;;;;;;;3.00;2.75;;;;;22.59;41.69;101536.00;5079105;28;45554;-49
2022/07/03 07:47:41;;;;;;;;;4.50;3.00;;;;;22.58;41.69;101536.94;5078457;28;45345;-52
2022/07/03 07:50:07;;;;;;;;;3.00;3.00;;;;;22.60;41.67;101535.91;5079114;28;45330;-54
2022/07/03 07:52:32;;;;;;;;;2.50;2.50;;;;;22.62;41.65;101538.50;5078612;28;45319;-54
2022/07/03 07:54:57;;;;;;;;;3.75;3.00;;;;;22.63;41.51;101540.19;5078550;28;45177;-49
2022/07/03 07:57:23;;;;;;;;;4.00;3.00;;;;;22.64;41.58;101539.28;5078613;28;45633;-53
2022/07/03 07:59:48;;;;;;;;;2.50;2.00;;;;;22.65;41.85;101535.69;5078495;28;45829;-54
2022/07/03 08:07:41;;;;;;;;;2.75;2.75;;;;;22.67;41.53;101533.81;5078199;28;45913;-53
2022/07/03 08:10:07;;;;;;;;;4.00;3.50;;;;;22.67;41.53;101536.44;5078524;28;50336;-54
2022/07/03 08:12:32;;;;;;;;;3.00;3.00;;;;;22.67;41.48;101536.44;5078585;28;45255;-55
2022/07/03 08:14:57;;;;;;;;;3.00;3.00;;;;;22.68;41.55;101532.88;5078358;28;45208;-54
2022/07/03 08:17:23;;;;;;;;;4.00;2.00;;;;;22.69;41.52;101531.94;5078326;28;46054;-53
2022/07/03 08:19:48;;;;;;;;;2.75;2.75;;;;;22.69;41.80;101535.44;5077980;28;46855;-51
2022/07/03 08:22:13;;;;;;;;;3.25;3.00;;;;;22.71;41.70;101530.06;5078343;28;48225;-53
2022/07/03 08:24:39;;;;;;;;;5.00;3.00;;;;;22.72;41.68;101529.13;5059981;28;45643;-53
2022/07/03 08:27:05;;;;;;;;;3.00;3.00;;;;;22.73;41.38;101533.50;5077621;28;61892;-53
2022/07/03 08:29:30;;;;;;;;;4.00;3.00;;;;;22.74;41.35;101535.19;5078261;28;45393;-59
2022/07/03 08:31:56;;;;;;;;;2.50;2.50;;;;;22.76;41.53;101528.06;5059717;28;45370;-54
2022/07/03 08:34:22;;;;;;;;;3.00;2.50;;;;;22.77;41.52;101532.38;5078411;28;45402;-52
2022/07/03 10:23:10;;;;;;;;;4.25;3.75;;;;;23.18;41.16;101525.75;5386667;22;45592;-53
2022/07/03 10:25:40;;;;;;;;;2.00;2.00;;;;;23.19;41.01;101516.03;5035863;28;45381;-54
2022/07/03 10:28:06;;;;;;;;;3.00;3.00;;;;;23.19;41.08;101531.91;5036347;28;45513;-56
2022/07/03 10:30:32;;;;;;;;;2.00;2.00;;;;;23.18;40.85;101536.34;5036088;28;46570;-54
2022/07/03 10:32:58;;;;;;;;;3.25;3.00;;;;;23.20;41.28;101536.28;5035503;28;45422;-55
2022/07/03 10:35:36;;;;;;;;;5.00;3.00;;;;;23.17;40.98;101535.50;5035996;28;45390;-55
2022/07/03 10:38:01;;;;;;;;;3.75;3.75;;;;;23.16;41.09;101525.84;5036094;28;45570;-57
2022/07/03 10:46:33;;;;;;;;;4.00;4.00;;;;;23.18;41.30;101528.41;5036329;28;45217;-56
2022/07/03 10:49:00;;;;;;;;;3.75;3.00;;;;;23.18;41.29;101525.75;5035659;28;45787;-56
2022/07/03 10:51:30;;;;;;;;;3.00;3.00;;;;;23.19;41.25;101526.63;5035577;28;46202;-55
2022/07/03 10:54:25;;;;;;;;;5.25;5.25;;;;;23.20;41.02;101537.13;5035326;28;45324;-57
2022/07/03 10:57:02;;;;;;;;;3.25;3.25;;;;;23.22;41.17;101537.91;5017665;28;45367;-55
2022/07/03 10:59:36;;;;;;;;;3.50;3.50;;;;;23.23;41.28;101546.69;5035821;28;45474;-55
2022/07/03 11:02:24;;;;;;;;;4.00;4.00;;;;;23.26;40.93;101533.28;5035498;28;46059;-56
2022/07/03 11:05:01;;;;;;;;;4.25;4.25;;;;;23.29;41.05;101541.91;5035193;28;45475;-55
2022/07/03 11:07:55;;;;;;;;;5.00;4.25;;;;;23.30;41.00;101525.09;5035630;28;45469;-56
2022/07/03 11:10:23;;;;;;;;;3.00;3.00;;;;;23.35;41.00;101531.94;5014102;28;45556;-55
2022/07/03 11:13:09;;;;;;;;;4.00;4.00;;;;;23.35;40.95;101529.28;5034733;28;46236;-54
2022/07/03 11:15:40;;;;;;;;;6.00;4.50;;;;;23.36;41.00;101534.47;5034472;28;45594;-55
2022/07/03 11:20:37;;;;;;;;;5.50;5.00;;;;;23.39;41.10;101536.97;5034711;28;45649;-54
2022/07/03 11:23:28;;;;;;;;;5.00;5.00;;;;;23.39;41.21;101533.44;5032109;28;45729;-55
2022/07/03 11:26:20;;;;;;;;;4.50;3.50;;;;;23.40;41.25;101536.03;5033920;28;45984;-55
2022/07/03 11:28:45;;;;;;;;;5.00;4.00;;;;;23.40;41.24;101535.16;5034448;28;45462;-55
2022/07/03 11:31:13;;;;;;;;;5.67;5.67;;;;;23.41;41.13;101536.88;5035510;28;45494;-56
2022/07/03 11:33:41;;;;;;;;;6.50;5.00;;;;;23.42;40.95;101530.63;5034625;28;45396;-56
2022/07/03 11:36:09;;;;;;;;;7.50;5.00;;;;;23.43;41.00;101529.69;5017473;28;45704;-56
2022/07/03 11:38:35;;;;;;;;;4.50;4.00;;;;;23.44;41.12;101534.88;5017776;28;45431;-56
2022/07/03 11:41:02;;;;;;;;;4.50;4.50;;;;;23.43;41.24;101529.69;5017356;28;45569;-54
2022/07/03 11:43:27;;;;;;;;;5.00;3.50;;;;;23.45;41.59;101520.72;5035012;28;46239;-55
2022/07/03 11:45:53;;;;;;;;;4.00;3.50;;;;;23.47;41.23;101531.25;5034821;28;45254;-55
2022/07/03 11:48:23;;;;;;;;;4.50;4.00;;;;;23.46;41.44;101527.72;5035073;28;45449;-56
2022/07/03 11:50:49;;;;;;;;;4.25;4.25;;;;;23.47;41.67;101531.25;5035022;28;45527;-55
2022/07/03 11:53:16;;;;;;;;;4.00;4.00;;;;;23.47;41.00;101528.59;5034855;28;45446;-55
2022/07/03 11:55:50;;;;;;;;;5.75;5.00;;;;;23.47;41.16;101521.50;5016949;28;45415;-56
2022/07/03 11:58:16;;;;;;;;;4.00;4.00;;;;;23.47;41.06;101524.16;5017523;28;45438;-56
2022/07/03 12:00:41;;;;;;;;;6.00;4.50;;;;;23.47;41.33;101526.78;5035857;28;45319;-55
2022/07/03 12:03:07;;;;;;;;;6.00;4.00;;;;;23.50;40.88;101514.34;5038572;28;45406;-56
2022/07/03 12:05:33;;;;;;;;;4.00;4.00;;;;;23.49;40.78;101508.16;5038399;28;45326;-55
2022/07/03 12:08:05;;;;;;;;;4.00;4.00;;;;;23.51;40.69;101516.88;5038053;28;45237;-54
2022/07/03 12:10:41;;;;;;;;;6.75;4.00;;;;;23.53;41.15;101514.16;5038491;28;45571;-56
2022/07/03 12:13:23;;;;;;;;;3.00;3.00;;;;;23.52;40.65;101501.88;5038423;28;46425;-56
2022/07/03 12:15:48;;;;;;;;;3.00;3.00;;;;;23.52;40.67;101501.88;5020176;28;45871;-56
2022/07/03 12:18:15;;;;;;;;;3.00;2.50;;;;;23.53;40.60;101507.06;5038426;28;45384;-56
2022/07/03 12:20:41;;;;;;;;;2.25;2.25;;;;;23.54;40.89;101502.59;5020299;28;45334;-58
2022/07/03 12:23:06;;;;;;;;;3.00;2.75;;;;;23.56;40.41;101498.09;5038008;28;45335;-56
2022/07/03 12:25:31;;;;;;;;;4.00;3.75;;;;;23.58;40.64;101502.38;5037779;28;45435;-54
2022/07/03 12:27:57;;;;;;;;;2.75;1.75;;;;;23.56;40.52;101498.09;5037657;28;45277;-56
2022/07/03 12:30:25;;;;;;;;;2.00;2.00;;;;;23.58;40.38;101491.78;5038144;28;45379;-54
2022/07/03 12:32:51;;;;;;;;;2.00;2.00;;;;;23.58;40.43;101490.91;5037310;28;45666;-55
2022/07/03 12:35:24;;;;;;;;;3.00;3.00;;;;;23.57;39.85;101489.22;5037737;28;45712;-52
2022/07/03 12:37:49;;;;;;;;;1.75;1.75;;;;;23.56;40.16;101482.22;5037594;28;45300;-54
2022/07/03 12:40:15;;;;;;;;;2.00;2.00;;;;;23.55;39.90;101475.22;5037963;28;45162;-55
2022/07/03 12:42:45;;;;;;;;;2.00;2.00;;;;;23.58;39.96;101488.28;5019148;28;47250;-55
2022/07/03 12:45:13;;;;;;;;;2.50;2.00;;;;;23.59;39.97;101487.34;5037650;28;45728;-56
2022/07/03 12:47:39;;;;;;;;;2.00;2.00;;;;;23.60;40.15;101489.03;5038081;28;45289;-54
2022/07/03 12:50:05;;;;;;;;;3.25;2.00;;;;;23.60;39.95;101494.34;5038310;28;45501;-56
2022/07/03 12:52:33;;;;;;;;;4.00;2.00;;;;;23.60;39.75;101483.75;5037442;28;45215;-56
2022/07/03 12:55:00;;;;;;;;;4.00;3.00;;;;;23.62;40.02;101484.53;5037200;28;45748;-56
2022/07/03 13:00:19;;;;;;;;;2.00;2.00;;;;;23.63;38.97;101488.88;5037621;28;45376;-54
2022/07/03 13:02:46;;;;;;;;;2.00;2.00;;;;;23.65;39.27;101491.41;5037171;28;45431;-54
2022/07/03 13:05:19;;;;;;;;;1.50;1.00;;;;;23.66;39.25;101495.78;5037441;28;45371;-54
2022/07/03 13:07:50;;;;;;;;;3.00;1.75;;;;;23.64;38.96;101480.00;5037227;28;45368;-55
2022/07/03 13:10:16;;;;;;;;;2.00;2.00;;;;;23.67;39.19;101485.09;5037812;28;45214;-56
2022/07/03 13:12:53;;;;;;;;;3.50;1.00;;;;;23.64;39.21;101480.00;5036932;28;46051;-56
2022/07/03 13:15:20;;;;;;;;;1.00;1.00;;;;;23.67;38.79;101490.38;5037185;28;46389;-56
2022/07/03 13:17:54;;;;;;;;;1.00;1.00;;;;;23.67;38.79;101485.09;5036653;28;45520;-56
2022/07/03 13:20:20;;;;;;;;;1.00;1.00;;;;;23.68;38.83;101491.25;5036966;28;45332;-55
2022/07/03 13:22:54;;;;;;;;;2.00;1.00;;;;;23.66;38.77;101478.09;5036244;28;45597;-54
2022/07/03 13:25:19;;;;;;;;;0.75;0.75;;;;;23.69;38.71;101480.56;5036850;28;45852;-54
2022/07/03 13:27:45;;;;;;;;;1.00;1.00;;;;;23.70;38.82;101474.31;5036919;28;45357;-55
2022/07/03 13:30:15;;;;;;;;;2.00;2.00;;;;;23.70;38.63;101474.31;5037039;28;45433;-54
2022/07/03 13:32:41;;;;;;;;;2.00;2.00;;;;;23.70;38.46;101476.13;5036596;28;47339;-55
2022/07/03 13:35:07;;;;;;;;;1.00;1.00;;;;;23.69;38.76;101477.91;5037146;28;45298;-53
2022/07/03 13:37:33;;;;;;;;;0.75;0.75;;;;;23.69;38.49;101472.63;5036963;28;45416;-55